sensor_id;sensor_type;location;lat;lon;timestamp;P1;durP1;ratioP1;P2;durP2;ratioP2
20535;SDS011;10426;49.420;8.390;2022-11-15T00:00:59;5.38;;;4.95;;
20535;SDS011;10426;49.420;8.390;2022-11-15T00:03:26;7.00;;;4.80;;
20535;SDS011;10426;49.420;8.390;2022-11-15T00:05:53;5.50;;;5.00;;
20535;SDS011;10426;49.420;8.390;2022-11-15T00:08:20;5.20;;;4.60;;
20535;SDS011;10426;49.420;8.390;2022-11-15T00:10:54;5.72;;;5.03;;
20535;SDS011;10426;49.420;8.390;2022-11-15T00:13:20;4.65;;;4.30;;
20535;SDS011;10426;49.420;8.390;2022-11-15T00:15:47;4.80;;;4.40;;
20535;SDS011;10426;49.420;8.390;2022-11-15T00:18:15;5.70;;;4.78;;
20535;SDS011;10426;49.420;8.390;2022-11-15T00:20:43;5.65;;;5.05;;
20535;SDS011;10426;49.420;8.390;2022-11-15T00:23:09;5.32;;;4.82;;
20535;SDS011;10426;49.420;8.390;2022-11-15T00:25:36;5.40;;;4.90;;
20535;SDS011;10426;49.420;8.390;2022-11-15T00:28:03;5.28;;;4.55;;
20535;SDS011;10426;49.420;8.390;2022-11-15T00:30:30;5.10;;;4.60;;
20535;SDS011;10426;49.420;8.390;2022-11-15T00:32:57;4.90;;;4.50;;
20535;SDS011;10426;49.420;8.390;2022-11-15T00:35:30;5.05;;;4.65;;
20535;SDS011;10426;49.420;8.390;2022-11-15T00:37:57;4.90;;;4.50;;
20535;SDS011;10426;49.420;8.390;2022-11-15T00:40:24;5.07;;;4.55;;
20535;SDS011;10426;49.420;8.390;2022-11-15T00:42:51;4.63;;;4.17;;
20535;SDS011;10426;49.420;8.390;2022-11-15T00:45:17;5.63;;;4.20;;
20535;SDS011;10426;49.420;8.390;2022-11-15T00:47:44;4.95;;;4.38;;
20535;SDS011;10426;49.420;8.390;2022-11-15T00:50:11;4.68;;;4.28;;
20535;SDS011;10426;49.420;8.390;2022-11-15T00:52:39;5.32;;;4.30;;
20535;SDS011;10426;49.420;8.390;2022-11-15T00:55:06;4.80;;;4.15;;
20535;SDS011;10426;49.420;8.390;2022-11-15T00:57:33;5.03;;;4.53;;
20535;SDS011;10426;49.420;8.390;2022-11-15T01:00:00;5.57;;;4.53;;
20535;SDS011;10426;49.420;8.390;2022-11-15T01:02:26;4.78;;;4.00;;
20535;SDS011;10426;49.420;8.390;2022-11-15T01:04:53;4.53;;;4.20;;
20535;SDS011;10426;49.420;8.390;2022-11-15T01:07:20;6.55;;;4.45;;
20535;SDS011;10426;49.420;8.390;2022-11-15T01:09:48;4.82;;;4.38;;
20535;SDS011;10426;49.420;8.390;2022-11-15T01:12:14;4.47;;;4.07;;
20535;SDS011;10426;49.420;8.390;2022-11-15T01:14:41;4.40;;;4.07;;
20535;SDS011;10426;49.420;8.390;2022-11-15T01:17:08;4.80;;;4.18;;
20535;SDS011;10426;49.420;8.390;2022-11-15T01:19:34;6.60;;;4.20;;
20535;SDS011;10426;49.420;8.390;2022-11-15T01:22:01;6.00;;;4.37;;
20535;SDS011;10426;49.420;8.390;2022-11-15T01:24:28;5.20;;;4.20;;
20535;SDS011;10426;49.420;8.390;2022-11-15T01:26:56;4.38;;;3.72;;
20535;SDS011;10426;49.420;8.390;2022-11-15T01:29:22;4.68;;;4.25;;
20535;SDS011;10426;49.420;8.390;2022-11-15T01:31:49;4.15;;;3.85;;
20535;SDS011;10426;49.420;8.390;2022-11-15T01:34:16;4.18;;;3.78;;
20535;SDS011;10426;49.420;8.390;2022-11-15T01:36:43;5.00;;;4.20;;
20535;SDS011;10426;49.420;8.390;2022-11-15T01:39:09;4.65;;;4.22;;
20535;SDS011;10426;49.420;8.390;2022-11-15T01:41:36;4.03;;;3.72;;
20535;SDS011;10426;49.420;8.390;2022-11-15T01:46:49;4.18;;;3.78;;
20535;SDS011;10426;49.420;8.390;2022-11-15T01:49:17;4.47;;;3.97;;
20535;SDS011;10426;49.420;8.390;2022-11-15T01:54:29;4.20;;;3.80;;
20535;SDS011;10426;49.420;8.390;2022-11-15T01:56:57;4.10;;;3.70;;
20535;SDS011;10426;49.420;8.390;2022-11-15T01:59:25;4.30;;;4.00;;
20535;SDS011;10426;49.420;8.390;2022-11-15T02:01:53;4.20;;;3.90;;
20535;SDS011;10426;49.420;8.390;2022-11-15T02:04:21;4.55;;;4.00;;
20535;SDS011;10426;49.420;8.390;2022-11-15T02:06:50;4.30;;;4.00;;
20535;SDS011;10426;49.420;8.390;2022-11-15T02:09:17;4.25;;;3.90;;
20535;SDS011;10426;49.420;8.390;2022-11-15T02:11:44;4.37;;;3.97;;
20535;SDS011;10426;49.420;8.390;2022-11-15T02:14:11;4.30;;;4.00;;
20535;SDS011;10426;49.420;8.390;2022-11-15T02:16:40;5.05;;;4.15;;
20535;SDS011;10426;49.420;8.390;2022-11-15T02:19:12;4.40;;;4.00;;
20535;SDS011;10426;49.420;8.390;2022-11-15T02:21:43;4.35;;;3.95;;
20535;SDS011;10426;49.420;8.390;2022-11-15T02:24:16;4.40;;;4.00;;
20535;SDS011;10426;49.420;8.390;2022-11-15T02:29:52;4.50;;;3.88;;
20535;SDS011;10426;49.420;8.390;2022-11-15T02:32:25;4.03;;;3.70;;
20535;SDS011;10426;49.420;8.390;2022-11-15T02:34:58;4.45;;;3.85;;
20535;SDS011;10426;49.420;8.390;2022-11-15T02:37:29;5.50;;;3.70;;
20535;SDS011;10426;49.420;8.390;2022-11-15T02:39:59;4.35;;;3.80;;
20535;SDS011;10426;49.420;8.390;2022-11-15T02:42:28;4.28;;;3.70;;
20535;SDS011;10426;49.420;8.390;2022-11-15T02:45:16;4.10;;;3.70;;
20535;SDS011;10426;49.420;8.390;2022-11-15T02:47:45;3.97;;;3.70;;
20535;SDS011;10426;49.420;8.390;2022-11-15T02:50:16;4.80;;;4.00;;
20535;SDS011;10426;49.420;8.390;2022-11-15T02:52:44;3.85;;;3.50;;
20535;SDS011;10426;49.420;8.390;2022-11-15T02:55:27;3.88;;;3.50;;
20535;SDS011;10426;49.420;8.390;2022-11-15T02:57:57;4.38;;;3.97;;
20535;SDS011;10426;49.420;8.390;2022-11-15T03:00:30;5.82;;;3.63;;
20535;SDS011;10426;49.420;8.390;2022-11-15T03:03:05;5.43;;;3.67;;
20535;SDS011;10426;49.420;8.390;2022-11-15T03:05:35;3.85;;;3.55;;
20535;SDS011;10426;49.420;8.390;2022-11-15T03:08:05;4.55;;;3.50;;
20535;SDS011;10426;49.420;8.390;2022-11-15T03:10:36;4.50;;;3.20;;
20535;SDS011;10426;49.420;8.390;2022-11-15T03:13:08;4.88;;;3.42;;
20535;SDS011;10426;49.420;8.390;2022-11-15T03:15:41;5.40;;;3.60;;
20535;SDS011;10426;49.420;8.390;2022-11-15T03:18:12;4.77;;;3.70;;
20535;SDS011;10426;49.420;8.390;2022-11-15T03:20:42;3.63;;;3.35;;
20535;SDS011;10426;49.420;8.390;2022-11-15T03:23:09;4.18;;;3.75;;
20535;SDS011;10426;49.420;8.390;2022-11-15T03:25:38;3.75;;;3.45;;
20535;SDS011;10426;49.420;8.390;2022-11-15T03:28:08;4.15;;;3.85;;
20535;SDS011;10426;49.420;8.390;2022-11-15T03:30:36;4.20;;;3.80;;
20535;SDS011;10426;49.420;8.390;2022-11-15T03:33:04;3.70;;;3.40;;
20535;SDS011;10426;49.420;8.390;2022-11-15T03:35:33;4.20;;;3.80;;
20535;SDS011;10426;49.420;8.390;2022-11-15T03:38:04;4.43;;;3.65;;
20535;SDS011;10426;49.420;8.390;2022-11-15T03:40:33;3.88;;;3.58;;
20535;SDS011;10426;49.420;8.390;2022-11-15T03:43:04;4.07;;;3.50;;
20535;SDS011;10426;49.420;8.390;2022-11-15T03:45:33;3.77;;;3.47;;
20535;SDS011;10426;49.420;8.390;2022-11-15T03:48:02;3.90;;;3.30;;
20535;SDS011;10426;49.420;8.390;2022-11-15T03:50:33;3.88;;;3.40;;
20535;SDS011;10426;49.420;8.390;2022-11-15T03:53:00;4.00;;;3.40;;
20535;SDS011;10426;49.420;8.390;2022-11-15T03:55:27;4.40;;;3.60;;
20535;SDS011;10426;49.420;8.390;2022-11-15T03:57:54;3.58;;;3.28;;
20535;SDS011;10426;49.420;8.390;2022-11-15T04:00:21;3.83;;;3.30;;
20535;SDS011;10426;49.420;8.390;2022-11-15T04:02:48;3.30;;;3.10;;
20535;SDS011;10426;49.420;8.390;2022-11-15T04:05:16;3.60;;;3.30;;
20535;SDS011;10426;49.420;8.390;2022-11-15T04:07:47;3.35;;;3.15;;
20535;SDS011;10426;49.420;8.390;2022-11-15T04:10:13;4.18;;;2.92;;
20535;SDS011;10426;49.420;8.390;2022-11-15T04:12:41;3.63;;;3.33;;
20535;SDS011;10426;49.420;8.390;2022-11-15T04:15:10;3.58;;;3.17;;
20535;SDS011;10426;49.420;8.390;2022-11-15T04:17:38;3.30;;;3.10;;
20535;SDS011;10426;49.420;8.390;2022-11-15T04:20:06;3.50;;;2.90;;
20535;SDS011;10426;49.420;8.390;2022-11-15T04:22:53;4.13;;;3.50;;
20535;SDS011;10426;49.420;8.390;2022-11-15T04:25:37;3.75;;;3.45;;
20535;SDS011;10426;49.420;8.390;2022-11-15T04:28:04;3.47;;;3.28;;
20535;SDS011;10426;49.420;8.390;2022-11-15T04:30:30;5.10;;;3.22;;
20535;SDS011;10426;49.420;8.390;2022-11-15T04:32:57;3.70;;;3.33;;
20535;SDS011;10426;49.420;8.390;2022-11-15T04:35:24;4.07;;;3.30;;
20535;SDS011;10426;49.420;8.390;2022-11-15T04:37:50;4.20;;;3.85;;
20535;SDS011;10426;49.420;8.390;2022-11-15T04:40:17;3.72;;;3.47;;
20535;SDS011;10426;49.420;8.390;2022-11-15T04:42:44;3.63;;;3.30;;
20535;SDS011;10426;49.420;8.390;2022-11-15T04:45:11;3.78;;;3.03;;
20535;SDS011;10426;49.420;8.390;2022-11-15T04:47:37;3.50;;;3.20;;
20535;SDS011;10426;49.420;8.390;2022-11-15T04:50:04;4.40;;;3.10;;
20535;SDS011;10426;49.420;8.390;2022-11-15T04:52:31;5.10;;;3.00;;
20535;SDS011;10426;49.420;8.390;2022-11-15T04:54:58;3.45;;;3.15;;
20535;SDS011;10426;49.420;8.390;2022-11-15T04:57:26;3.20;;;2.90;;
20535;SDS011;10426;49.420;8.390;2022-11-15T04:59:53;5.30;;;3.07;;
20535;SDS011;10426;49.420;8.390;2022-11-15T05:02:20;3.37;;;3.00;;
20535;SDS011;10426;49.420;8.390;2022-11-15T05:04:46;3.88;;;3.28;;
20535;SDS011;10426;49.420;8.390;2022-11-15T05:07:12;4.80;;;3.00;;
20535;SDS011;10426;49.420;8.390;2022-11-15T05:09:39;3.20;;;2.92;;
20535;SDS011;10426;49.420;8.390;2022-11-15T05:12:06;3.10;;;2.88;;
20535;SDS011;10426;49.420;8.390;2022-11-15T05:14:34;3.88;;;3.58;;
20535;SDS011;10426;49.420;8.390;2022-11-15T05:17:00;3.25;;;2.95;;
20535;SDS011;10426;49.420;8.390;2022-11-15T05:19:27;3.13;;;2.90;;
20535;SDS011;10426;49.420;8.390;2022-11-15T05:21:54;3.38;;;2.97;;
20535;SDS011;10426;49.420;8.390;2022-11-15T05:24:20;3.47;;;3.10;;
20535;SDS011;10426;49.420;8.390;2022-11-15T05:26:47;3.60;;;3.30;;
20535;SDS011;10426;49.420;8.390;2022-11-15T05:29:14;3.40;;;2.93;;
20535;SDS011;10426;49.420;8.390;2022-11-15T05:31:42;3.30;;;2.97;;
20535;SDS011;10426;49.420;8.390;2022-11-15T05:34:09;3.30;;;2.85;;
20535;SDS011;10426;49.420;8.390;2022-11-15T05:36:36;4.65;;;2.95;;
20535;SDS011;10426;49.420;8.390;2022-11-15T05:39:04;3.83;;;3.40;;
20535;SDS011;10426;49.420;8.390;2022-11-15T05:41:31;3.40;;;3.10;;
20535;SDS011;10426;49.420;8.390;2022-11-15T05:43:59;3.10;;;2.90;;
20535;SDS011;10426;49.420;8.390;2022-11-15T05:46:26;3.37;;;3.03;;
20535;SDS011;10426;49.420;8.390;2022-11-15T05:48:55;3.28;;;2.97;;
20535;SDS011;10426;49.420;8.390;2022-11-15T05:51:23;3.95;;;3.53;;
20535;SDS011;10426;49.420;8.390;2022-11-15T05:53:50;4.20;;;2.90;;
20535;SDS011;10426;49.420;8.390;2022-11-15T05:56:18;3.65;;;3.20;;
20535;SDS011;10426;49.420;8.390;2022-11-15T05:58:45;6.63;;;3.10;;
20535;SDS011;10426;49.420;8.390;2022-11-15T06:01:11;4.45;;;3.80;;
20535;SDS011;10426;49.420;8.390;2022-11-15T06:03:38;6.80;;;6.10;;
20535;SDS011;10426;49.420;8.390;2022-11-15T06:06:07;10.02;;;8.85;;
20535;SDS011;10426;49.420;8.390;2022-11-15T06:08:34;4.30;;;3.92;;
20535;SDS011;10426;49.420;8.390;2022-11-15T06:11:04;4.40;;;4.00;;
20535;SDS011;10426;49.420;8.390;2022-11-15T06:13:32;5.25;;;3.60;;
20535;SDS011;10426;49.420;8.390;2022-11-15T06:15:59;3.50;;;3.30;;
20535;SDS011;10426;49.420;8.390;2022-11-15T06:18:26;4.55;;;3.50;;
20535;SDS011;10426;49.420;8.390;2022-11-15T06:20:52;3.60;;;3.30;;
20535;SDS011;10426;49.420;8.390;2022-11-15T06:23:21;4.47;;;4.07;;
20535;SDS011;10426;49.420;8.390;2022-11-15T06:25:47;4.35;;;3.55;;
20535;SDS011;10426;49.420;8.390;2022-11-15T06:28:14;4.95;;;3.20;;
20535;SDS011;10426;49.420;8.390;2022-11-15T06:30:41;6.50;;;3.60;;
20535;SDS011;10426;49.420;8.390;2022-11-15T06:33:08;3.63;;;3.28;;
20535;SDS011;10426;49.420;8.390;2022-11-15T06:35:35;3.78;;;3.33;;
20535;SDS011;10426;49.420;8.390;2022-11-15T06:38:03;5.07;;;3.42;;
20535;SDS011;10426;49.420;8.390;2022-11-15T06:40:32;3.70;;;3.30;;
20535;SDS011;10426;49.420;8.390;2022-11-15T06:42:59;4.13;;;3.50;;
20535;SDS011;10426;49.420;8.390;2022-11-15T06:45:25;4.57;;;3.55;;
20535;SDS011;10426;49.420;8.390;2022-11-15T06:47:52;4.25;;;3.88;;
20535;SDS011;10426;49.420;8.390;2022-11-15T06:50:19;4.97;;;3.95;;
20535;SDS011;10426;49.420;8.390;2022-11-15T06:52:46;4.80;;;3.83;;
20535;SDS011;10426;49.420;8.390;2022-11-15T06:55:12;6.80;;;4.20;;
20535;SDS011;10426;49.420;8.390;2022-11-15T06:57:47;4.37;;;3.97;;
20535;SDS011;10426;49.420;8.390;2022-11-15T07:00:14;4.80;;;4.30;;
20535;SDS011;10426;49.420;8.390;2022-11-15T07:02:42;5.70;;;4.80;;
20535;SDS011;10426;49.420;8.390;2022-11-15T07:05:09;5.95;;;5.20;;
20535;SDS011;10426;49.420;8.390;2022-11-15T07:07:35;5.07;;;4.50;;
20535;SDS011;10426;49.420;8.390;2022-11-15T07:10:02;10.25;;;9.23;;
20535;SDS011;10426;49.420;8.390;2022-11-15T07:12:29;8.25;;;7.43;;
20535;SDS011;10426;49.420;8.390;2022-11-15T07:14:57;12.50;;;10.67;;
20535;SDS011;10426;49.420;8.390;2022-11-15T07:17:23;12.80;;;11.25;;
20535;SDS011;10426;49.420;8.390;2022-11-15T07:19:50;8.90;;;8.00;;
20535;SDS011;10426;49.420;8.390;2022-11-15T07:22:17;7.20;;;6.50;;
20535;SDS011;10426;49.420;8.390;2022-11-15T07:24:43;5.50;;;5.10;;
20535;SDS011;10426;49.420;8.390;2022-11-15T07:27:10;6.20;;;4.10;;
20535;SDS011;10426;49.420;8.390;2022-11-15T07:29:37;3.97;;;3.60;;
20535;SDS011;10426;49.420;8.390;2022-11-15T07:32:05;6.43;;;4.30;;
20535;SDS011;10426;49.420;8.390;2022-11-15T07:34:31;4.07;;;3.67;;
20535;SDS011;10426;49.420;8.390;2022-11-15T07:36:59;4.22;;;3.33;;
20535;SDS011;10426;49.420;8.390;2022-11-15T07:39:26;5.25;;;3.50;;
20535;SDS011;10426;49.420;8.390;2022-11-15T07:41:52;6.40;;;3.60;;
20535;SDS011;10426;49.420;8.390;2022-11-15T07:44:39;3.78;;;3.42;;
20535;SDS011;10426;49.420;8.390;2022-11-15T07:47:07;3.60;;;3.30;;
20535;SDS011;10426;49.420;8.390;2022-11-15T07:49:34;4.57;;;4.13;;
20535;SDS011;10426;49.420;8.390;2022-11-15T07:52:01;15.75;;;9.23;;
20535;SDS011;10426;49.420;8.390;2022-11-15T07:54:28;15.40;;;6.35;;
20535;SDS011;10426;49.420;8.390;2022-11-15T07:56:54;24.13;;;6.28;;
20535;SDS011;10426;49.420;8.390;2022-11-15T07:59:21;24.95;;;12.88;;
20535;SDS011;10426;49.420;8.390;2022-11-15T08:01:48;20.02;;;11.32;;
20535;SDS011;10426;49.420;8.390;2022-11-15T08:04:16;14.80;;;8.45;;
20535;SDS011;10426;49.420;8.390;2022-11-15T08:06:44;6.53;;;5.20;;
20535;SDS011;10426;49.420;8.390;2022-11-15T08:09:11;4.53;;;3.90;;
20535;SDS011;10426;49.420;8.390;2022-11-15T08:11:38;4.15;;;3.63;;
20535;SDS011;10426;49.420;8.390;2022-11-15T08:14:04;5.43;;;3.50;;
20535;SDS011;10426;49.420;8.390;2022-11-15T08:16:31;4.33;;;3.40;;
20535;SDS011;10426;49.420;8.390;2022-11-15T08:18:58;8.15;;;4.05;;
20535;SDS011;10426;49.420;8.390;2022-11-15T08:21:26;8.00;;;3.80;;
20535;SDS011;10426;49.420;8.390;2022-11-15T08:23:53;11.80;;;4.30;;
20535;SDS011;10426;49.420;8.390;2022-11-15T08:26:20;7.72;;;3.80;;
20535;SDS011;10426;49.420;8.390;2022-11-15T08:28:47;4.03;;;3.60;;
20535;SDS011;10426;49.420;8.390;2022-11-15T08:31:14;5.18;;;3.90;;
20535;SDS011;10426;49.420;8.390;2022-11-15T08:33:42;4.57;;;3.75;;
20535;SDS011;10426;49.420;8.390;2022-11-15T08:36:11;4.00;;;3.60;;
20535;SDS011;10426;49.420;8.390;2022-11-15T08:38:41;4.40;;;3.53;;
20535;SDS011;10426;49.420;8.390;2022-11-15T08:41:10;5.95;;;3.92;;
20535;SDS011;10426;49.420;8.390;2022-11-15T08:43:38;5.68;;;4.03;;
20535;SDS011;10426;49.420;8.390;2022-11-15T08:46:05;3.97;;;3.60;;
20535;SDS011;10426;49.420;8.390;2022-11-15T08:48:32;4.20;;;3.80;;
20535;SDS011;10426;49.420;8.390;2022-11-15T08:50:59;4.43;;;3.92;;
20535;SDS011;10426;49.420;8.390;2022-11-15T08:53:26;5.55;;;3.90;;
20535;SDS011;10426;49.420;8.390;2022-11-15T08:55:54;4.73;;;3.93;;
20535;SDS011;10426;49.420;8.390;2022-11-15T08:58:21;4.47;;;4.05;;
20535;SDS011;10426;49.420;8.390;2022-11-15T09:00:47;4.35;;;3.80;;
20535;SDS011;10426;49.420;8.390;2022-11-15T09:03:14;5.30;;;3.80;;
20535;SDS011;10426;49.420;8.390;2022-11-15T09:05:40;4.82;;;3.95;;
20535;SDS011;10426;49.420;8.390;2022-11-15T09:08:07;4.80;;;4.20;;
20535;SDS011;10426;49.420;8.390;2022-11-15T09:10:34;6.13;;;4.50;;
20535;SDS011;10426;49.420;8.390;2022-11-15T09:13:03;5.50;;;4.30;;
20535;SDS011;10426;49.420;8.390;2022-11-15T09:15:29;4.90;;;4.20;;
20535;SDS011;10426;49.420;8.390;2022-11-15T09:17:57;4.85;;;3.97;;
20535;SDS011;10426;49.420;8.390;2022-11-15T09:20:24;5.07;;;3.92;;
20535;SDS011;10426;49.420;8.390;2022-11-15T09:22:51;4.93;;;4.43;;
20535;SDS011;10426;49.420;8.390;2022-11-15T09:25:17;6.43;;;4.28;;
20535;SDS011;10426;49.420;8.390;2022-11-15T09:27:44;4.40;;;4.03;;
20535;SDS011;10426;49.420;8.390;2022-11-15T09:30:12;5.38;;;4.88;;
20535;SDS011;10426;49.420;8.390;2022-11-15T09:32:39;5.68;;;5.10;;
20535;SDS011;10426;49.420;8.390;2022-11-15T09:35:06;5.40;;;4.90;;
20535;SDS011;10426;49.420;8.390;2022-11-15T09:37:33;4.68;;;4.28;;
20535;SDS011;10426;49.420;8.390;2022-11-15T09:40:00;6.45;;;4.50;;
20535;SDS011;10426;49.420;8.390;2022-11-15T09:42:36;10.38;;;4.05;;
20535;SDS011;10426;49.420;8.390;2022-11-15T09:45:10;4.75;;;4.25;;
20535;SDS011;10426;49.420;8.390;2022-11-15T09:47:41;5.78;;;3.88;;
20535;SDS011;10426;49.420;8.390;2022-11-15T09:50:11;4.35;;;3.90;;
20535;SDS011;10426;49.420;8.390;2022-11-15T09:52:39;4.10;;;3.80;;
20535;SDS011;10426;49.420;8.390;2022-11-15T09:55:08;4.70;;;3.60;;
20535;SDS011;10426;49.420;8.390;2022-11-15T09:57:38;6.53;;;4.07;;
20535;SDS011;10426;49.420;8.390;2022-11-15T10:00:09;9.27;;;7.30;;
20535;SDS011;10426;49.420;8.390;2022-11-15T10:02:44;9.50;;;8.20;;
20535;SDS011;10426;49.420;8.390;2022-11-15T10:05:15;7.72;;;6.70;;
20535;SDS011;10426;49.420;8.390;2022-11-15T10:07:44;7.13;;;6.43;;
20535;SDS011;10426;49.420;8.390;2022-11-15T10:10:14;7.57;;;4.85;;
20535;SDS011;10426;49.420;8.390;2022-11-15T10:12:43;5.13;;;4.65;;
20535;SDS011;10426;49.420;8.390;2022-11-15T10:15:12;4.88;;;4.13;;
20535;SDS011;10426;49.420;8.390;2022-11-15T10:17:55;4.47;;;4.07;;
20535;SDS011;10426;49.420;8.390;2022-11-15T10:20:23;4.30;;;4.00;;
20535;SDS011;10426;49.420;8.390;2022-11-15T10:22:51;6.75;;;4.10;;
20535;SDS011;10426;49.420;8.390;2022-11-15T10:25:19;3.95;;;3.50;;
20535;SDS011;10426;49.420;8.390;2022-11-15T10:27:50;3.75;;;3.45;;
20535;SDS011;10426;49.420;8.390;2022-11-15T10:30:18;3.85;;;3.50;;
20535;SDS011;10426;49.420;8.390;2022-11-15T10:32:46;3.80;;;3.50;;
20535;SDS011;10426;49.420;8.390;2022-11-15T10:35:21;4.35;;;3.70;;
20535;SDS011;10426;49.420;8.390;2022-11-15T10:37:48;4.03;;;3.70;;
20535;SDS011;10426;49.420;8.390;2022-11-15T10:40:18;4.07;;;3.60;;
20535;SDS011;10426;49.420;8.390;2022-11-15T10:42:46;4.68;;;4.00;;
20535;SDS011;10426;49.420;8.390;2022-11-15T10:45:23;4.13;;;3.70;;
20535;SDS011;10426;49.420;8.390;2022-11-15T10:47:50;3.72;;;3.42;;
20535;SDS011;10426;49.420;8.390;2022-11-15T10:50:31;5.17;;;3.70;;
20535;SDS011;10426;49.420;8.390;2022-11-15T10:52:58;4.10;;;3.70;;
20535;SDS011;10426;49.420;8.390;2022-11-15T10:55:26;5.40;;;4.03;;
20535;SDS011;10426;49.420;8.390;2022-11-15T10:57:54;5.07;;;4.45;;
20535;SDS011;10426;49.420;8.390;2022-11-15T11:00:29;4.50;;;4.10;;
20535;SDS011;10426;49.420;8.390;2022-11-15T11:02:57;4.75;;;4.22;;
20535;SDS011;10426;49.420;8.390;2022-11-15T11:05:29;4.93;;;4.00;;
20535;SDS011;10426;49.420;8.390;2022-11-15T11:08:18;4.38;;;3.97;;
20535;SDS011;10426;49.420;8.390;2022-11-15T11:10:51;4.20;;;3.80;;
20535;SDS011;10426;49.420;8.390;2022-11-15T11:13:21;4.35;;;3.95;;
20535;SDS011;10426;49.420;8.390;2022-11-15T11:15:50;5.47;;;3.92;;
20535;SDS011;10426;49.420;8.390;2022-11-15T11:18:20;4.85;;;3.95;;
20535;SDS011;10426;49.420;8.390;2022-11-15T11:20:50;6.53;;;5.15;;
20535;SDS011;10426;49.420;8.390;2022-11-15T11:23:23;6.35;;;5.22;;
20535;SDS011;10426;49.420;8.390;2022-11-15T11:25:56;4.20;;;3.80;;
20535;SDS011;10426;49.420;8.390;2022-11-15T11:28:33;5.38;;;4.88;;
20535;SDS011;10426;49.420;8.390;2022-11-15T11:31:05;5.07;;;4.63;;
20535;SDS011;10426;49.420;8.390;2022-11-15T11:33:36;10.07;;;6.80;;
20535;SDS011;10426;49.420;8.390;2022-11-15T11:36:11;6.75;;;4.68;;
20535;SDS011;10426;49.420;8.390;2022-11-15T11:38:55;4.65;;;3.97;;
20535;SDS011;10426;49.420;8.390;2022-11-15T11:41:42;4.32;;;3.90;;
20535;SDS011;10426;49.420;8.390;2022-11-15T11:44:15;5.53;;;4.07;;
20535;SDS011;10426;49.420;8.390;2022-11-15T11:46:51;4.75;;;4.35;;
20535;SDS011;10426;49.420;8.390;2022-11-15T11:49:21;4.20;;;3.85;;
20535;SDS011;10426;49.420;8.390;2022-11-15T11:51:50;3.97;;;3.57;;
20535;SDS011;10426;49.420;8.390;2022-11-15T11:54:22;5.47;;;4.97;;
20535;SDS011;10426;49.420;8.390;2022-11-15T11:56:49;4.80;;;4.40;;
20535;SDS011;10426;49.420;8.390;2022-11-15T11:59:19;4.95;;;3.95;;
20535;SDS011;10426;49.420;8.390;2022-11-15T12:01:47;4.35;;;3.92;;
20535;SDS011;10426;49.420;8.390;2022-11-15T12:04:14;6.15;;;4.05;;
20535;SDS011;10426;49.420;8.390;2022-11-15T12:06:45;4.45;;;4.05;;
20535;SDS011;10426;49.420;8.390;2022-11-15T12:09:14;4.03;;;3.72;;
20535;SDS011;10426;49.420;8.390;2022-11-15T12:11:47;4.13;;;3.78;;
20535;SDS011;10426;49.420;8.390;2022-11-15T12:14:20;5.80;;;3.50;;
20535;SDS011;10426;49.420;8.390;2022-11-15T12:16:48;5.20;;;4.13;;
20535;SDS011;10426;49.420;8.390;2022-11-15T12:19:15;4.53;;;4.00;;
20535;SDS011;10426;49.420;8.390;2022-11-15T12:21:43;3.95;;;3.35;;
20535;SDS011;10426;49.420;8.390;2022-11-15T12:24:14;5.68;;;3.80;;
20535;SDS011;10426;49.420;8.390;2022-11-15T12:26:46;7.03;;;4.53;;
20535;SDS011;10426;49.420;8.390;2022-11-15T12:29:15;5.67;;;4.80;;
20535;SDS011;10426;49.420;8.390;2022-11-15T12:31:43;4.63;;;3.85;;
20535;SDS011;10426;49.420;8.390;2022-11-15T12:34:16;4.30;;;3.40;;
20535;SDS011;10426;49.420;8.390;2022-11-15T12:36:55;4.72;;;3.60;;
20535;SDS011;10426;49.420;8.390;2022-11-15T12:39:24;4.40;;;3.85;;
20535;SDS011;10426;49.420;8.390;2022-11-15T12:44:57;3.17;;;2.70;;
20535;SDS011;10426;49.420;8.390;2022-11-15T12:47:25;2.72;;;2.45;;
20535;SDS011;10426;49.420;8.390;2022-11-15T12:49:52;3.15;;;2.83;;
20535;SDS011;10426;49.420;8.390;2022-11-15T12:52:19;2.70;;;2.50;;
20535;SDS011;10426;49.420;8.390;2022-11-15T12:54:57;3.00;;;2.58;;
20535;SDS011;10426;49.420;8.390;2022-11-15T12:57:28;2.70;;;2.50;;
20535;SDS011;10426;49.420;8.390;2022-11-15T12:59:57;2.67;;;2.47;;
20535;SDS011;10426;49.420;8.390;2022-11-15T13:02:27;2.20;;;2.10;;
20535;SDS011;10426;49.420;8.390;2022-11-15T13:04:55;3.38;;;2.30;;
20535;SDS011;10426;49.420;8.390;2022-11-15T13:10:27;2.97;;;2.30;;
20535;SDS011;10426;49.420;8.390;2022-11-15T13:12:56;2.10;;;1.90;;
20535;SDS011;10426;49.420;8.390;2022-11-15T13:15:43;2.73;;;2.40;;
20535;SDS011;10426;49.420;8.390;2022-11-15T13:18:26;2.45;;;2.25;;
20535;SDS011;10426;49.420;8.390;2022-11-15T13:20:54;2.17;;;1.98;;
20535;SDS011;10426;49.420;8.390;2022-11-15T13:23:20;3.88;;;2.28;;
20535;SDS011;10426;49.420;8.390;2022-11-15T13:25:54;2.42;;;2.08;;
20535;SDS011;10426;49.420;8.390;2022-11-15T13:28:30;2.70;;;2.20;;
20535;SDS011;10426;49.420;8.390;2022-11-15T13:30:59;3.38;;;2.15;;
20535;SDS011;10426;49.420;8.390;2022-11-15T13:33:28;3.05;;;2.17;;
20535;SDS011;10426;49.420;8.390;2022-11-15T13:35:56;2.53;;;2.30;;
20535;SDS011;10426;49.420;8.390;2022-11-15T13:38:28;3.60;;;2.13;;
20535;SDS011;10426;49.420;8.390;2022-11-15T13:40:55;2.40;;;2.30;;
20535;SDS011;10426;49.420;8.390;2022-11-15T13:43:29;3.05;;;2.80;;
20535;SDS011;10426;49.420;8.390;2022-11-15T13:46:05;2.55;;;2.35;;
20535;SDS011;10426;49.420;8.390;2022-11-15T13:48:32;2.70;;;2.50;;
20535;SDS011;10426;49.420;8.390;2022-11-15T13:51:00;2.30;;;2.20;;
20535;SDS011;10426;49.420;8.390;2022-11-15T13:53:27;3.20;;;2.20;;
20535;SDS011;10426;49.420;8.390;2022-11-15T13:55:54;3.53;;;2.20;;
20535;SDS011;10426;49.420;8.390;2022-11-15T13:58:21;3.72;;;3.20;;
20535;SDS011;10426;49.420;8.390;2022-11-15T14:00:48;4.72;;;4.20;;
20535;SDS011;10426;49.420;8.390;2022-11-15T14:03:26;6.25;;;4.68;;
20535;SDS011;10426;49.420;8.390;2022-11-15T14:06:04;7.35;;;5.60;;
20535;SDS011;10426;49.420;8.390;2022-11-15T14:08:32;5.60;;;5.10;;
20535;SDS011;10426;49.420;8.390;2022-11-15T14:11:07;6.07;;;3.10;;
20535;SDS011;10426;49.420;8.390;2022-11-15T14:13:34;3.45;;;2.88;;
20535;SDS011;10426;49.420;8.390;2022-11-15T14:16:14;2.83;;;2.63;;
20535;SDS011;10426;49.420;8.390;2022-11-15T14:18:44;2.92;;;2.70;;
20535;SDS011;10426;49.420;8.390;2022-11-15T14:21:11;4.32;;;2.85;;
20535;SDS011;10426;49.420;8.390;2022-11-15T14:23:37;4.32;;;3.05;;
20535;SDS011;10426;49.420;8.390;2022-11-15T14:26:04;3.47;;;3.20;;
20535;SDS011;10426;49.420;8.390;2022-11-15T14:28:31;3.13;;;2.75;;
20535;SDS011;10426;49.420;8.390;2022-11-15T14:31:02;3.83;;;3.38;;
20535;SDS011;10426;49.420;8.390;2022-11-15T14:33:33;4.57;;;3.15;;
20535;SDS011;10426;49.420;8.390;2022-11-15T14:36:04;3.47;;;3.17;;
20535;SDS011;10426;49.420;8.390;2022-11-15T14:38:31;3.90;;;3.20;;
20535;SDS011;10426;49.420;8.390;2022-11-15T14:40:58;11.47;;;9.13;;
20535;SDS011;10426;49.420;8.390;2022-11-15T14:43:25;29.33;;;16.75;;
20535;SDS011;10426;49.420;8.390;2022-11-15T14:45:51;23.17;;;15.48;;
20535;SDS011;10426;49.420;8.390;2022-11-15T14:48:18;15.15;;;8.27;;
20535;SDS011;10426;49.420;8.390;2022-11-15T14:50:45;12.45;;;6.72;;
20535;SDS011;10426;49.420;8.390;2022-11-15T14:53:13;5.87;;;4.50;;
20535;SDS011;10426;49.420;8.390;2022-11-15T14:55:41;6.53;;;4.10;;
20535;SDS011;10426;49.420;8.390;2022-11-15T14:58:08;8.82;;;4.28;;
20535;SDS011;10426;49.420;8.390;2022-11-15T15:00:35;6.85;;;4.90;;
20535;SDS011;10426;49.420;8.390;2022-11-15T15:03:02;7.63;;;5.00;;
20535;SDS011;10426;49.420;8.390;2022-11-15T15:05:30;4.17;;;3.77;;
20535;SDS011;10426;49.420;8.390;2022-11-15T15:07:58;3.60;;;3.20;;
20535;SDS011;10426;49.420;8.390;2022-11-15T15:10:27;4.47;;;3.17;;
20535;SDS011;10426;49.420;8.390;2022-11-15T15:12:56;5.43;;;3.30;;